PWSweather.com
Personal Weather Stations
Station Observations
CRNINF
Briga AltaIT

Briga AltaIT

Lat: 44.1474858, Lon: 7.7359028

Elevation: 4542.8

Station Type: PCE-FWS20

Latest ConditionsUpdated 10:00:09 AM GMT+01:01 Friday, Feb 22, 2019
Currently Today's Max Today's Min Today's Average
Temperature 54.0°F12.2°C 54.0°F12.2°C 36.7°F2.6°C 41.7°F5.4°C
Dew Point 17.0°F-8.3°C 17.0°F-8.3°C 7.8°F-13.4°C 12.2°F-11.0°C
Winds 3.0 mph ESE4.8 kmh ESE 3.4 mph -5.5 kmh - - 1.8 mph 2.9 kmh
Wind Gusts 7.6 mph12.2 kmh 13.0 mph20.9 kmh - -
Humidity 23% 40% 20% 30%
Pressure 29.88 in1011.9 mb 29.90 in1012.5 mb 29.87 in1011.5 mb -
Hour Temp Dew Point Humidity Winds Wind Gusts Pressure Precip Precip Rate Daily Precip Total
10:00 AM 54.0°F12.2°C 17.0°F-8.3°C 23% 3.0 mph ESE4.8 kmh ESE 7.6 mph12.2 kmh 29.88 in1011.9 mb 0.00 in0.0 mm 0.00 in0.0 mm 0.00 in0.0 mm
09:45 AM 51.6°F10.9°C 14.0°F-10.0°C 22% 2.8 mph ESE4.5 kmh ESE 6.9 mph11.1 kmh 29.87 in1011.5 mb 0.00 in0.0 mm 0.00 in0.0 mm 0.00 in0.0 mm
09:30 AM 53.2°F11.8°C 13.2°F-10.4°C 20% 2.0 mph E3.2 kmh E 4.5 mph7.2 kmh 29.88 in1011.9 mb 0.00 in0.0 mm 0.00 in0.0 mm 0.00 in0.0 mm
09:15 AM 51.1°F10.6°C 12.5°F-10.8°C 21% 2.6 mph NW4.2 kmh NW 7.6 mph12.2 kmh 29.88 in1011.9 mb 0.00 in0.0 mm 0.00 in0.0 mm 0.00 in0.0 mm
09:00 AM 48.6°F9.2°C 11.5°F-11.4°C 22% 3.4 mph NW5.5 kmh NW 13.0 mph20.9 kmh 29.88 in1011.9 mb 0.00 in0.0 mm 0.00 in0.0 mm 0.00 in0.0 mm
08:45 AM 45.5°F7.5°C 11.7°F-11.3°C 25% 2.4 mph NW3.9 kmh NW 6.9 mph11.1 kmh 29.88 in1011.9 mb 0.00 in0.0 mm 0.00 in0.0 mm 0.00 in0.0 mm
08:30 AM 44.2°F6.8°C 7.8°F-13.4°C 22% 2.7 mph NNW4.3 kmh NNW 6.9 mph11.1 kmh 29.88 in1011.9 mb 0.00 in0.0 mm 0.00 in0.0 mm 0.00 in0.0 mm
08:15 AM 39.2°F4.0°C 13.2°F-10.4°C 34% 1.3 mph NNW2.1 kmh NNW 4.5 mph7.2 kmh 29.88 in1011.9 mb 0.00 in0.0 mm 0.00 in0.0 mm 0.00 in0.0 mm
08:00 AM 37.2°F2.9°C 15.2°F-9.3°C 40% 1.2 mph NNW1.9 kmh NNW 3.8 mph6.1 kmh 29.87 in1011.5 mb 0.00 in0.0 mm 0.00 in0.0 mm 0.00 in0.0 mm
07:45 AM 36.9°F2.7°C 14.2°F-9.9°C 39% 1.4 mph N2.3 kmh N 3.8 mph6.1 kmh 29.88 in1011.9 mb 0.00 in0.0 mm 0.00 in0.0 mm 0.00 in0.0 mm
07:30 AM 37.0°F2.8°C 13.8°F-10.1°C 38% 0.8 mph N1.3 kmh N 3.1 mph5.0 kmh 29.88 in1011.9 mb 0.00 in0.0 mm 0.00 in0.0 mm 0.00 in0.0 mm
07:15 AM 37.4°F3.0°C 13.5°F-10.3°C 37% 1.5 mph NW2.4 kmh NW 6.0 mph9.7 kmh 29.87 in1011.5 mb 0.00 in0.0 mm 0.00 in0.0 mm 0.00 in0.0 mm
07:00 AM 36.7°F2.6°C 14.7°F-9.6°C 40% 0.9 mph NW1.4 kmh NW 3.1 mph5.0 kmh 29.87 in1011.5 mb 0.00 in0.0 mm 0.00 in0.0 mm 0.00 in0.0 mm
06:45 AM 36.7°F2.6°C 14.1°F-9.9°C 39% 1.1 mph N1.8 kmh N 3.8 mph6.1 kmh 29.87 in1011.5 mb 0.00 in0.0 mm 0.00 in0.0 mm 0.00 in0.0 mm
06:30 AM 37.9°F3.3°C 12.8°F-10.7°C 35% 0.5 mph NNW0.8 kmh NNW 3.1 mph5.0 kmh 29.87 in1011.5 mb 0.00 in0.0 mm 0.00 in0.0 mm 0.00 in0.0 mm
06:15 AM 39.6°F4.2°C 10.0°F-12.2°C 29% 1.1 mph NW1.8 kmh NW 3.8 mph6.1 kmh 29.88 in1011.9 mb 0.00 in0.0 mm 0.00 in0.0 mm 0.00 in0.0 mm
06:00 AM 40.1°F4.5°C 10.4°F-12.0°C 29% 1.3 mph NW2.1 kmh NW 3.8 mph6.1 kmh 29.88 in1011.9 mb 0.00 in0.0 mm 0.00 in0.0 mm 0.00 in0.0 mm
05:45 AM 40.5°F4.7°C 10.7°F-11.8°C 29% 1.7 mph NW2.7 kmh NW 4.5 mph7.2 kmh 29.88 in1011.9 mb 0.00 in0.0 mm 0.00 in0.0 mm 0.00 in0.0 mm
05:30 AM 41.4°F5.2°C 9.1°F-12.7°C 26% 2.7 mph WNW4.3 kmh WNW 7.6 mph12.2 kmh 29.89 in1012.2 mb 0.00 in0.0 mm 0.00 in0.0 mm 0.00 in0.0 mm
05:15 AM 41.9°F5.5°C 9.5°F-12.5°C 26% 2.4 mph WNW3.9 kmh WNW 4.5 mph7.2 kmh 29.89 in1012.2 mb 0.00 in0.0 mm 0.00 in0.0 mm 0.00 in0.0 mm
05:00 AM 40.8°F4.9°C 11.1°F-11.6°C 29% 2.4 mph NW3.9 kmh NW 6.0 mph9.7 kmh 29.88 in1011.9 mb 0.00 in0.0 mm 0.00 in0.0 mm 0.00 in0.0 mm
04:45 AM 40.1°F4.5°C 11.2°F-11.6°C 30% 3.1 mph WNW5.0 kmh WNW 6.0 mph9.7 kmh 29.88 in1011.9 mb 0.00 in0.0 mm 0.00 in0.0 mm 0.00 in0.0 mm
04:30 AM 39.6°F4.2°C 12.2°F-11.0°C 32% 1.5 mph NW2.4 kmh NW 4.5 mph7.2 kmh 29.88 in1011.9 mb 0.00 in0.0 mm 0.00 in0.0 mm 0.00 in0.0 mm
04:15 AM 37.9°F3.3°C 13.4°F-10.3°C 36% 1.0 mph NW1.6 kmh NW 3.1 mph5.0 kmh 29.89 in1012.2 mb 0.00 in0.0 mm 0.00 in0.0 mm 0.00 in0.0 mm
04:00 AM 38.5°F3.6°C 13.2°F-10.4°C 35% 0.8 mph N1.3 kmh N 3.1 mph5.0 kmh 29.89 in1012.2 mb 0.00 in0.0 mm 0.00 in0.0 mm 0.00 in0.0 mm
03:45 AM 39.4°F4.1°C 9.8°F-12.3°C 29% 1.2 mph NW1.9 kmh NW 3.1 mph5.0 kmh 29.89 in1012.2 mb 0.00 in0.0 mm 0.00 in0.0 mm 0.00 in0.0 mm
03:30 AM 39.6°F4.2°C 10.7°F-11.8°C 30% 1.2 mph NW1.9 kmh NW 4.5 mph7.2 kmh 29.90 in1012.5 mb 0.00 in0.0 mm 0.00 in0.0 mm 0.00 in0.0 mm
03:15 AM 39.6°F4.2°C 10.0°F-12.2°C 29% 1.5 mph NNW2.4 kmh NNW 4.5 mph7.2 kmh 29.90 in1012.5 mb 0.00 in0.0 mm 0.00 in0.0 mm 0.00 in0.0 mm